createdAt,value
2019-05-14T00:01:48.026Z,11.10
2019-05-14T00:04:16.748Z,12.63
2019-05-14T00:06:45.574Z,10.47
2019-05-14T00:09:14.301Z,10.50
2019-05-14T00:11:43.026Z,10.17
2019-05-14T00:14:11.928Z,10.33
2019-05-14T00:16:42.405Z,10.53
2019-05-14T00:19:11.387Z,11.10
2019-05-14T00:21:42.271Z,9.90
2019-05-14T00:24:11.365Z,13.63
2019-05-14T00:26:42.555Z,10.10
2019-05-14T00:29:11.513Z,11.70
2019-05-14T00:31:42.427Z,10.63
2019-05-14T00:34:11.292Z,9.77
2019-05-14T00:36:41.609Z,11.77
2019-05-14T00:39:11.326Z,9.83
2019-05-14T00:41:41.995Z,11.30
2019-05-14T00:44:10.853Z,10.33
2019-05-14T00:46:41.087Z,13.13
2019-05-14T00:49:11.878Z,11.20
2019-05-14T00:51:41.273Z,12.37
2019-05-14T00:54:11.232Z,12.63
2019-05-14T00:56:41.727Z,16.63
2019-05-14T00:59:11.354Z,12.00
2019-05-14T01:01:42.295Z,13.40
2019-05-14T01:04:11.822Z,12.27
2019-05-14T01:06:42.049Z,12.53
2019-05-14T01:09:11.496Z,11.73
2019-05-14T01:11:42.068Z,12.93
2019-05-14T01:14:12.276Z,14.10
2019-05-14T01:16:42.412Z,12.47
2019-05-14T01:19:12.368Z,11.87
2019-05-14T01:21:41.818Z,14.93
2019-05-14T01:24:12.623Z,13.93
2019-05-14T01:26:41.610Z,11.70
2019-05-14T01:29:11.946Z,12.40
2019-05-14T01:31:41.803Z,15.37
2019-05-14T01:34:11.226Z,12.27
2019-05-14T01:36:41.383Z,12.13
2019-05-14T01:39:12.143Z,12.73
2019-05-14T01:41:42.322Z,13.83
2019-05-14T01:44:11.964Z,13.80
2019-05-14T01:46:42.020Z,14.50
2019-05-14T01:49:12.054Z,12.77
2019-05-14T01:51:42.343Z,12.43
2019-05-14T01:54:11.912Z,11.87
2019-05-14T01:56:42.327Z,12.13
2019-05-14T01:59:12.116Z,12.63
2019-05-14T02:01:41.621Z,12.93
2019-05-14T02:04:11.597Z,13.40
2019-05-14T02:06:41.383Z,14.80
2019-05-14T02:09:11.110Z,11.53
2019-05-14T02:11:41.544Z,12.80
2019-05-14T02:14:11.692Z,12.93
2019-05-14T02:16:42.322Z,12.67
2019-05-14T02:19:11.635Z,14.40
2019-05-14T02:21:42.497Z,14.10
2019-05-14T02:24:11.474Z,14.83
2019-05-14T02:26:42.497Z,11.83
2019-05-14T02:29:12.475Z,15.00
2019-05-14T02:31:41.503Z,13.93
2019-05-14T02:34:10.528Z,14.17
2019-05-14T02:36:40.103Z,16.20
2019-05-14T02:39:10.124Z,13.83
2019-05-14T02:41:39.475Z,11.53
2019-05-14T02:44:09.972Z,12.20
2019-05-14T02:46:40.475Z,11.13
2019-05-14T02:49:10.450Z,11.40
2019-05-14T02:51:39.661Z,12.10
2019-05-14T02:54:10.032Z,11.80
2019-05-14T02:56:44.331Z,11.53
2019-05-14T02:59:19.815Z,12.13
2019-05-14T03:01:58.884Z,12.40
2019-05-14T03:04:26.197Z,12.27
2019-05-14T03:06:54.918Z,11.93
2019-05-14T03:09:23.754Z,11.23
2019-05-14T03:11:52.710Z,13.63
2019-05-14T03:14:21.451Z,13.87
2019-05-14T03:16:50.288Z,12.40
2019-05-14T03:19:19.772Z,14.80
2019-05-14T03:21:50.066Z,13.27
2019-05-14T03:24:19.720Z,13.53
2019-05-14T03:26:49.969Z,12.57
2019-05-14T03:29:19.652Z,12.67
2019-05-14T03:31:52.449Z,14.17
2019-05-14T03:34:22.040Z,14.80
2019-05-14T03:36:52.885Z,13.43
2019-05-14T03:39:20.112Z,12.20
2019-05-14T03:41:49.957Z,15.20
2019-05-14T03:44:19.974Z,13.83
2019-05-14T03:46:54.718Z,20.93
2019-05-14T03:49:20.053Z,20.80
2019-05-14T03:51:49.802Z,15.80
2019-05-14T03:54:19.595Z,17.40
2019-05-14T03:56:49.609Z,16.33
2019-05-14T03:59:19.921Z,16.30
2019-05-14T04:01:50.982Z,19.70
2019-05-14T04:04:19.899Z,14.37
2019-05-14T04:06:49.939Z,15.40
2019-05-14T04:09:20.674Z,15.07
2019-05-14T04:11:51.179Z,16.30
2019-05-14T04:14:22.798Z,14.17
2019-05-14T04:17:08.028Z,13.80
2019-05-14T04:19:24.972Z,12.70
2019-05-14T04:21:54.758Z,14.93
2019-05-14T04:24:24.444Z,13.20
2019-05-14T04:27:03.424Z,15.10
2019-05-14T04:29:30.718Z,12.97
2019-05-14T04:32:00.340Z,12.97
2019-05-14T04:34:30.154Z,15.53
2019-05-14T04:36:59.645Z,14.63
2019-05-14T04:39:30.728Z,12.73
2019-05-14T04:42:00.038Z,11.90
2019-05-14T04:44:29.919Z,11.23
2019-05-14T04:46:59.955Z,10.97
2019-05-14T04:49:29.445Z,11.57
2019-05-14T04:51:59.594Z,10.93
2019-05-14T04:54:30.239Z,10.03
2019-05-14T04:57:00.152Z,12.17
2019-05-14T04:59:29.913Z,11.70
2019-05-14T05:02:00.086Z,9.67
2019-05-14T05:04:29.797Z,9.77
2019-05-14T05:06:59.431Z,10.50
2019-05-14T05:09:29.264Z,11.80
2019-05-14T05:11:59.760Z,13.53
2019-05-14T05:14:29.658Z,14.70
2019-05-14T05:16:59.744Z,13.73
2019-05-14T05:19:29.164Z,13.80
2019-05-14T05:21:58.706Z,12.67
2019-05-14T05:24:28.733Z,13.67
2019-05-14T05:26:58.574Z,13.87
2019-05-14T05:29:28.606Z,13.37
2019-05-14T05:31:59.413Z,13.93
2019-05-14T05:34:28.428Z,14.33
2019-05-14T05:36:59.244Z,13.77
2019-05-14T05:39:28.375Z,15.13
2019-05-14T05:41:58.510Z,16.73
2019-05-14T05:44:28.709Z,17.93
2019-05-14T05:46:59.733Z,21.10
2019-05-14T05:49:29.125Z,19.53
2019-05-14T05:51:59.191Z,18.33
2019-05-14T05:54:29.221Z,15.93
2019-05-14T05:56:58.341Z,17.80
2019-05-14T05:59:29.337Z,15.70
2019-05-14T06:01:58.632Z,14.57
2019-05-14T06:04:29.060Z,18.90
2019-05-14T06:06:59.058Z,18.23
2019-05-14T06:09:28.810Z,13.83
2019-05-14T06:11:59.225Z,15.77
2019-05-14T06:14:29.144Z,15.57
2019-05-14T06:16:59.068Z,18.77
2019-05-14T06:19:29.019Z,18.33
2019-05-14T06:21:59.657Z,16.30
2019-05-14T06:24:28.748Z,15.77
2019-05-14T06:26:58.649Z,15.30
2019-05-14T06:29:29.015Z,16.53
2019-05-14T06:31:58.912Z,15.33
2019-05-14T06:34:29.108Z,16.30
2019-05-14T06:36:59.120Z,16.87
2019-05-14T06:39:28.628Z,14.70
2019-05-14T06:41:58.560Z,15.53
2019-05-14T06:44:29.402Z,13.77
2019-05-14T06:46:59.111Z,16.03
2019-05-14T06:49:28.981Z,16.07
2019-05-14T06:51:59.490Z,16.17
2019-05-14T06:54:29.330Z,13.47
2019-05-14T06:56:58.443Z,15.70
2019-05-14T06:59:28.740Z,14.87
2019-05-14T07:01:58.194Z,15.87
2019-05-14T07:04:28.863Z,15.67
2019-05-14T07:06:59.144Z,18.80
2019-05-14T07:09:28.984Z,17.93
2019-05-14T07:11:58.606Z,15.83
2019-05-14T07:14:28.315Z,17.60
2019-05-14T07:16:58.918Z,19.37
2019-05-14T07:19:29.359Z,19.63
2019-05-14T07:21:58.463Z,17.10
2019-05-14T07:24:28.273Z,18.53
2019-05-14T07:26:58.710Z,17.43
2019-05-14T07:29:29.275Z,19.10
2019-05-14T07:31:59.336Z,15.73
2019-05-14T07:34:28.489Z,18.03
2019-05-14T07:36:58.732Z,18.47
2019-05-14T07:39:29.094Z,25.60
2019-05-14T07:41:59.097Z,17.90
2019-05-14T07:44:29.643Z,14.73
2019-05-14T07:46:59.027Z,13.50
2019-05-14T07:49:29.677Z,13.63
2019-05-14T07:52:01.123Z,13.30
2019-05-14T07:54:29.940Z,13.70
2019-05-14T07:56:59.166Z,15.03
2019-05-14T07:59:34.771Z,14.60
2019-05-14T08:02:03.643Z,14.83
2019-05-14T08:04:32.380Z,13.33
2019-05-14T08:07:01.119Z,14.13
2019-05-14T08:09:29.932Z,13.97
2019-05-14T08:11:58.927Z,12.30
2019-05-14T08:14:29.378Z,10.73
2019-05-14T08:16:59.519Z,10.53
2019-05-14T08:19:31.525Z,11.00
2019-05-14T08:21:59.142Z,10.87
2019-05-14T08:24:30.110Z,11.23
2019-05-14T08:26:58.521Z,11.43
2019-05-14T08:29:28.641Z,12.20
2019-05-14T08:31:58.234Z,12.77
2019-05-14T08:34:30.419Z,13.77
2019-05-14T08:36:58.929Z,15.93
2019-05-14T08:39:28.559Z,15.57
2019-05-14T08:42:03.674Z,12.07
2019-05-14T08:44:29.363Z,12.97
2019-05-14T08:46:59.007Z,13.50
2019-05-14T08:49:38.968Z,15.17
2019-05-14T08:51:59.494Z,17.53
2019-05-14T08:54:28.581Z,12.53
2019-05-14T08:56:58.452Z,10.70
2019-05-14T08:59:28.626Z,10.57
2019-05-14T09:02:05.834Z,10.53
2019-05-14T09:04:30.160Z,10.30
2019-05-14T09:06:58.678Z,10.37
2019-05-14T09:09:29.073Z,10.03
2019-05-14T09:12:00.331Z,9.80
2019-05-14T09:14:29.183Z,10.70
2019-05-14T09:17:00.142Z,10.17
2019-05-14T09:19:30.529Z,9.13
2019-05-14T09:21:59.410Z,9.97
2019-05-14T09:24:29.413Z,8.17
2019-05-14T09:26:59.240Z,8.20
2019-05-14T09:29:29.714Z,7.90
2019-05-14T09:31:59.310Z,7.33
2019-05-14T09:34:29.121Z,7.20
2019-05-14T09:36:59.343Z,8.03
2019-05-14T09:39:31.458Z,7.87
2019-05-14T09:42:01.643Z,7.17
2019-05-14T09:44:30.412Z,8.20
2019-05-14T09:46:59.550Z,8.63
2019-05-14T09:49:28.409Z,9.37
2019-05-14T09:51:58.592Z,9.40
2019-05-14T09:54:28.805Z,8.83
2019-05-14T09:56:59.185Z,9.67
2019-05-14T09:59:28.458Z,10.20
2019-05-14T10:01:58.524Z,9.80
2019-05-14T10:04:27.589Z,9.70
2019-05-14T10:06:59.063Z,9.33
2019-05-14T10:09:28.974Z,10.23
2019-05-14T10:11:58.080Z,12.03
2019-05-14T10:14:29.612Z,8.20
2019-05-14T10:16:58.313Z,9.47
2019-05-14T10:19:29.642Z,9.00
2019-05-14T10:21:58.842Z,9.90
2019-05-14T10:24:29.099Z,9.67
2019-05-14T10:26:58.647Z,9.77
2019-05-14T10:29:28.615Z,9.23
2019-05-14T10:31:59.212Z,9.30
2019-05-14T10:34:28.717Z,8.17
2019-05-14T10:36:59.074Z,8.00
2019-05-14T10:39:29.877Z,8.93
2019-05-14T10:41:58.587Z,8.77
2019-05-14T10:44:29.317Z,8.13
2019-05-14T10:46:58.274Z,7.67
2019-05-14T10:49:29.744Z,8.00
2019-05-14T10:51:58.576Z,7.67
2019-05-14T10:54:29.242Z,8.50
2019-05-14T10:56:59.088Z,9.77
2019-05-14T10:59:31.261Z,7.20
2019-05-14T11:19:05.210Z,7.97
2019-05-14T11:21:34.011Z,6.80
2019-05-14T11:24:05.794Z,6.53
2019-05-14T11:26:35.163Z,6.57
2019-05-14T11:29:03.872Z,7.03
2019-05-14T11:31:34.375Z,7.13
2019-05-14T11:34:04.076Z,7.40
2019-05-14T11:36:32.832Z,8.13
2019-05-14T11:39:04.131Z,8.13
2019-05-14T11:41:32.076Z,6.83
2019-05-14T11:44:00.803Z,9.10
2019-05-14T11:46:43.613Z,7.30
2019-05-14T11:49:00.148Z,9.83
2019-05-14T11:51:54.713Z,7.67
2019-05-14T11:53:59.339Z,8.93
2019-05-14T11:56:29.447Z,8.17
2019-05-14T11:58:59.062Z,7.97
2019-05-14T12:01:29.780Z,10.33
2019-05-14T12:03:59.734Z,9.17
2019-05-14T12:06:30.418Z,10.73
2019-05-14T12:08:59.177Z,10.47
2019-05-14T12:11:29.080Z,9.83
2019-05-14T12:13:59.880Z,9.63
2019-05-14T12:16:29.238Z,9.30
2019-05-14T12:18:59.123Z,8.87
2019-05-14T12:21:28.872Z,8.93
2019-05-14T12:24:04.022Z,9.27
2019-05-14T12:26:28.471Z,17.43
2019-05-14T12:28:59.456Z,9.27
2019-05-14T12:31:28.905Z,9.90
2019-05-14T12:33:58.427Z,9.47
2019-05-14T12:36:29.242Z,9.83
2019-05-14T12:38:59.165Z,9.97
2019-05-14T12:41:38.239Z,12.63
2019-05-14T13:13:19.730Z,10.23
2019-05-14T13:15:48.590Z,11.37
2019-05-14T13:18:19.329Z,10.63
2019-05-14T13:20:48.255Z,10.37
2019-05-14T13:23:18.382Z,9.87
2019-05-14T13:25:47.250Z,17.60
2019-05-14T13:28:16.088Z,10.73
2019-05-14T13:30:44.819Z,9.90
2019-05-14T13:33:13.541Z,12.03
2019-05-14T13:35:42.492Z,10.40
2019-05-14T13:38:14.308Z,11.57
2019-05-14T13:40:41.672Z,10.70
2019-05-14T13:43:14.407Z,10.43
2019-05-14T13:45:41.964Z,11.13
2019-05-14T13:48:10.690Z,13.23
2019-05-14T13:50:40.253Z,11.97
2019-05-14T13:53:12.757Z,11.23
2019-05-14T13:55:46.238Z,10.97
2019-05-14T13:58:10.166Z,11.83
2019-05-14T14:00:38.910Z,12.53
2019-05-14T14:03:10.079Z,15.00
2019-05-14T14:05:39.201Z,12.90
2019-05-14T14:08:08.774Z,16.83
2019-05-14T14:10:44.802Z,13.93
2019-05-14T14:13:11.155Z,13.17
2019-05-14T14:15:38.963Z,13.67
2019-05-14T14:18:07.691Z,16.37
2019-05-14T14:20:39.248Z,15.40
2019-05-14T14:23:18.933Z,20.87
2019-05-14T14:25:39.486Z,20.80
2019-05-14T14:31:44.996Z,21.27
2019-05-14T14:34:13.724Z,14.77
2019-05-14T14:36:42.454Z,17.33
2019-05-14T14:39:11.265Z,18.33
2019-05-14T14:41:40.023Z,18.13
2019-05-14T14:44:09.065Z,19.97
2019-05-14T14:46:39.139Z,19.00
2019-05-14T14:49:10.923Z,18.73
2019-05-14T14:51:44.033Z,17.70
2019-05-14T14:54:15.238Z,15.93
2019-05-14T14:56:39.590Z,15.10
2019-05-14T14:59:09.535Z,15.97
2019-05-14T15:01:40.258Z,15.10
2019-05-14T15:04:13.629Z,15.03
2019-05-14T15:06:39.996Z,13.97
2019-05-14T15:09:09.712Z,13.33
2019-05-14T15:11:39.599Z,13.53
2019-05-14T15:14:08.646Z,13.90
2019-05-14T15:16:39.146Z,13.77
2019-05-14T15:19:09.497Z,16.07
2019-05-14T15:21:38.349Z,13.63
2019-05-14T15:24:15.168Z,13.93
2019-05-14T15:26:37.595Z,14.80
2019-05-14T15:29:09.673Z,14.60
2019-05-14T15:31:38.599Z,15.13
2019-05-14T15:34:08.979Z,13.77
2019-05-14T15:36:41.243Z,15.63
2019-05-14T15:39:10.081Z,17.80
2019-05-14T15:41:39.501Z,15.37
2019-05-14T15:44:09.008Z,15.70
2019-05-14T15:46:41.919Z,15.53
2019-05-14T15:49:09.113Z,15.70
2019-05-14T15:51:39.780Z,17.73
2019-05-14T15:54:34.533Z,15.77
2019-05-14T15:56:39.469Z,16.03
2019-05-14T15:59:08.851Z,16.77
2019-05-14T16:01:39.794Z,31.13
2019-05-14T16:04:11.413Z,22.10
2019-05-14T16:06:38.753Z,19.60
2019-05-14T16:09:07.830Z,18.93
2019-05-14T16:11:39.168Z,32.83
2019-05-14T16:14:08.233Z,18.57
2019-05-14T16:16:39.215Z,19.40
2019-05-14T16:19:08.362Z,20.90
2019-05-14T16:21:38.623Z,16.97
2019-05-14T16:24:08.299Z,16.13
2019-05-14T16:26:38.370Z,18.23
2019-05-14T16:29:08.888Z,18.20
2019-05-14T16:31:43.230Z,17.33
2019-05-14T16:34:09.809Z,17.30
2019-05-14T16:36:41.336Z,18.23
2019-05-14T16:39:09.791Z,20.17
2019-05-14T16:41:39.050Z,18.23
2019-05-14T16:44:09.061Z,18.47
2019-05-14T16:46:38.563Z,18.50
2019-05-14T16:49:08.947Z,16.93
2019-05-14T16:51:37.865Z,19.20
2019-05-14T16:54:06.662Z,16.47
2019-05-14T16:56:35.403Z,18.40
2019-05-14T16:59:04.154Z,15.30
2019-05-14T17:01:33.944Z,15.70
2019-05-14T17:04:04.733Z,17.03
2019-05-14T17:06:34.849Z,17.20
2019-05-14T17:09:05.073Z,16.53
2019-05-14T17:11:33.784Z,15.67
2019-05-14T17:14:02.607Z,14.77
2019-05-14T17:16:31.472Z,15.37
2019-05-14T17:19:00.231Z,15.60
2019-05-14T17:21:28.957Z,15.43
2019-05-14T17:23:58.150Z,17.20
2019-05-14T17:26:28.772Z,19.37
2019-05-14T17:28:59.671Z,16.37
2019-05-14T17:31:30.914Z,16.53
2019-05-14T17:33:58.723Z,16.93
2019-05-14T17:36:28.286Z,17.03
2019-05-14T17:38:58.625Z,16.77
2019-05-14T17:41:27.501Z,17.50
2019-05-14T17:43:58.461Z,17.23
2019-05-14T17:46:28.925Z,17.63
2019-05-14T17:48:59.114Z,16.43
2019-05-14T17:51:28.428Z,16.63
2019-05-14T17:53:58.667Z,16.70
2019-05-14T17:56:28.394Z,19.87
2019-05-14T17:58:57.938Z,15.77
2019-05-14T18:01:29.006Z,18.80
2019-05-14T18:03:58.471Z,17.37
2019-05-14T18:06:28.573Z,23.17
2019-05-14T18:08:58.680Z,19.80
2019-05-14T18:11:28.405Z,15.70
2019-05-14T18:13:58.970Z,18.10
2019-05-14T18:16:28.504Z,16.53
2019-05-14T18:18:58.319Z,17.33
2019-05-14T18:21:28.504Z,16.50
2019-05-14T18:23:58.599Z,17.13
2019-05-14T18:26:38.588Z,17.60
2019-05-14T18:29:08.749Z,16.37
2019-05-14T18:31:44.571Z,19.33
2019-05-14T18:34:08.122Z,18.00
2019-05-14T18:36:39.519Z,17.77
2019-05-14T18:39:09.258Z,20.53
2019-05-14T18:41:39.461Z,19.13
2019-05-14T18:44:08.521Z,21.23
2019-05-14T18:46:39.408Z,19.07
2019-05-14T18:49:08.790Z,17.43
2019-05-14T18:51:37.643Z,17.23
2019-05-14T18:54:08.015Z,16.20
2019-05-14T18:56:38.401Z,17.00
2019-05-14T18:59:09.089Z,18.27
2019-05-14T19:01:39.722Z,15.83
2019-05-14T19:04:08.376Z,19.30
2019-05-14T19:06:38.887Z,16.83
2019-05-14T19:09:10.705Z,16.20
2019-05-14T19:11:39.107Z,18.37
2019-05-14T19:14:09.001Z,17.27
2019-05-14T19:16:38.465Z,16.03
2019-05-14T19:19:08.091Z,16.33
2019-05-14T19:21:38.239Z,19.57
2019-05-14T19:24:09.068Z,17.57
2019-05-14T19:26:40.311Z,18.00
2019-05-14T19:29:08.752Z,19.20
2019-05-14T19:31:38.670Z,19.30
2019-05-14T19:34:08.499Z,20.53
2019-05-14T19:36:39.765Z,18.63
2019-05-14T19:39:08.568Z,19.27
2019-05-14T19:41:38.915Z,20.40
2019-05-14T19:44:08.792Z,24.20
2019-05-14T19:46:38.615Z,19.50
2019-05-14T19:49:08.162Z,19.50
2019-05-14T19:51:38.699Z,18.53
2019-05-14T19:54:08.256Z,20.47
2019-05-14T19:56:51.889Z,20.70
2019-05-14T19:59:09.076Z,17.70
2019-05-14T20:01:38.694Z,17.97
2019-05-14T20:04:09.526Z,21.13
2019-05-14T20:06:38.857Z,19.53
2019-05-14T20:09:09.562Z,18.97
2019-05-14T20:11:39.634Z,21.00
2019-05-14T20:14:08.899Z,18.17
2019-05-14T20:16:39.226Z,20.33
2019-05-14T20:19:08.808Z,20.57
2019-05-14T20:21:38.960Z,25.57
2019-05-14T20:24:07.929Z,20.00
2019-05-14T20:26:38.883Z,19.80
2019-05-14T20:29:08.721Z,19.70
2019-05-14T20:31:38.984Z,18.73
2019-05-14T20:34:08.469Z,19.17
2019-05-14T20:36:39.040Z,16.80
2019-05-14T20:39:08.662Z,22.03
2019-05-14T20:41:38.507Z,19.47
2019-05-14T20:44:07.592Z,19.30
2019-05-14T20:46:38.259Z,18.40
2019-05-14T20:49:08.862Z,21.40
2019-05-14T20:51:38.907Z,19.10
2019-05-14T20:54:08.912Z,20.43
2019-05-14T20:56:39.992Z,17.53
2019-05-14T20:59:08.424Z,19.67
2019-05-14T21:01:38.685Z,17.53
2019-05-14T21:04:09.024Z,19.37
2019-05-14T21:06:39.024Z,19.90
2019-05-14T21:09:08.060Z,20.87
2019-05-14T21:11:38.414Z,22.13
2019-05-14T21:14:08.918Z,20.73
2019-05-14T21:16:39.267Z,23.13
2019-05-14T21:19:08.618Z,20.63
2019-05-14T21:21:38.305Z,23.67
2019-05-14T21:24:10.097Z,21.03
2019-05-14T21:26:40.125Z,24.17
2019-05-14T21:29:09.205Z,23.90
2019-05-14T21:31:38.479Z,27.53
2019-05-14T21:34:08.193Z,24.37
2019-05-14T21:36:39.104Z,24.43
2019-05-14T21:39:08.092Z,26.53
2019-05-14T21:41:38.726Z,22.83
2019-05-14T21:44:08.559Z,25.63
2019-05-14T21:46:39.821Z,23.93
2019-05-14T21:49:11.131Z,24.83
2019-05-14T21:51:39.472Z,22.97
2019-05-14T21:54:09.451Z,27.13
2019-05-14T21:56:38.805Z,25.53
2019-05-14T21:59:09.595Z,25.37
2019-05-14T22:01:39.326Z,27.73
2019-05-14T22:04:11.476Z,28.70
2019-05-14T22:06:41.272Z,26.83
2019-05-14T22:09:10.207Z,25.73
2019-05-14T22:11:39.452Z,24.73
2019-05-14T22:14:08.512Z,26.70
2019-05-14T22:16:38.073Z,26.13
2019-05-14T22:19:08.478Z,29.23
2019-05-14T22:21:38.583Z,30.97
2019-05-14T22:24:07.904Z,26.83
2019-05-14T22:26:38.754Z,28.07
2019-05-14T22:29:08.342Z,28.27
2019-05-14T22:31:38.745Z,26.73
2019-05-14T22:34:08.927Z,26.43
2019-05-14T22:36:38.647Z,29.63
2019-05-14T22:39:07.607Z,28.57
2019-05-14T22:41:38.307Z,31.87
2019-05-14T22:44:09.066Z,29.10
2019-05-14T22:46:39.964Z,27.63
2019-05-14T22:49:09.208Z,28.13
2019-05-14T22:51:38.535Z,28.23
2019-05-14T22:54:08.726Z,25.57
2019-05-14T22:56:38.926Z,27.47
2019-05-14T22:59:08.011Z,26.17
2019-05-14T23:01:38.640Z,24.47
2019-05-14T23:04:08.997Z,25.83
2019-05-14T23:06:38.378Z,25.83
2019-05-14T23:09:09.046Z,25.90
2019-05-14T23:11:38.450Z,29.17
2019-05-14T23:14:07.626Z,27.80
2019-05-14T23:16:39.245Z,27.23
2019-05-14T23:19:07.964Z,29.17
2019-05-14T23:21:39.094Z,27.30
2019-05-14T23:24:09.203Z,26.77
2019-05-14T23:26:38.159Z,29.03
2019-05-14T23:29:07.065Z,24.57
2019-05-14T23:31:38.244Z,24.23
2019-05-14T23:34:06.605Z,25.37
2019-05-14T23:36:35.803Z,23.70
2019-05-14T23:39:08.869Z,24.63
2019-05-14T23:41:38.319Z,28.13
2019-05-14T23:44:08.351Z,24.67
2019-05-14T23:46:37.497Z,23.90
2019-05-14T23:49:08.741Z,26.90
2019-05-14T23:51:38.516Z,26.43
2019-05-14T23:54:08.776Z,27.00
2019-05-14T23:56:38.388Z,26.77
2019-05-14T23:59:09.310Z,28.60
